sensor_id;sensor_type;location;lat;lon;timestamp;pressure;altitude;pressure_sealevel;temperature;humidity
7407;BME280;3745;56.964;24.128;2022-07-22T00:01:03;101487.00;;;21.13;100.00
7407;BME280;3745;56.964;24.128;2022-07-22T00:03:29;101471.69;;;21.03;100.00
7407;BME280;3745;56.964;24.128;2022-07-22T00:05:55;101487.94;;;21.08;100.00
7407;BME280;3745;56.964;24.128;2022-07-22T00:08:20;101487.13;;;21.03;100.00
7407;BME280;3745;56.964;24.128;2022-07-22T00:10:46;101486.34;;;20.98;100.00
7407;BME280;3745;56.964;24.128;2022-07-22T00:13:12;101483.91;;;20.92;100.00
7407;BME280;3745;56.964;24.128;2022-07-22T00:15:38;101437.22;;;20.65;100.00
7407;BME280;3745;56.964;24.128;2022-07-22T00:18:04;101491.59;;;20.94;100.00
7407;BME280;3745;56.964;24.128;2022-07-22T00:20:29;101485.66;;;20.90;100.00
7407;BME280;3745;56.964;24.128;2022-07-22T00:22:55;101487.44;;;20.88;100.00
7407;BME280;3745;56.964;24.128;2022-07-22T00:25:21;101454.44;;;20.61;100.00
7407;BME280;3745;56.964;24.128;2022-07-22T00:27:47;101495.47;;;20.69;100.00
7407;BME280;3745;56.964;24.128;2022-07-22T00:30:12;101492.91;;;20.70;100.00
7407;BME280;3745;56.964;24.128;2022-07-22T00:32:38;101476.88;;;20.54;100.00
7407;BME280;3745;56.964;24.128;2022-07-22T00:35:05;101498.22;;;20.58;100.00
7407;BME280;3745;56.964;24.128;2022-07-22T00:37:30;101477.94;;;20.40;100.00
7407;BME280;3745;56.964;24.128;2022-07-22T00:39:56;101473.59;;;20.43;100.00
7407;BME280;3745;56.964;24.128;2022-07-22T00:42:22;101470.22;;;20.40;100.00
7407;BME280;3745;56.964;24.128;2022-07-22T00:44:48;101438.63;;;20.35;100.00
7407;BME280;3745;56.964;24.128;2022-07-22T00:47:13;101471.78;;;20.51;100.00
7407;BME280;3745;56.964;24.128;2022-07-22T00:49:39;101504.97;;;20.65;100.00
7407;BME280;3745;56.964;24.128;2022-07-22T00:52:05;101489.53;;;20.65;100.00
7407;BME280;3745;56.964;24.128;2022-07-22T00:54:32;101496.38;;;20.66;100.00
7407;BME280;3745;56.964;24.128;2022-07-22T00:56:58;101476.00;;;20.54;100.00
7407;BME280;3745;56.964;24.128;2022-07-22T00:59:25;101486.16;;;20.63;100.00
7407;BME280;3745;56.964;24.128;2022-07-22T01:01:50;101493.88;;;20.62;100.00
7407;BME280;3745;56.964;24.128;2022-07-22T01:04:17;101493.94;;;20.59;100.00
7407;BME280;3745;56.964;24.128;2022-07-22T01:06:42;101479.56;;;20.47;100.00
7407;BME280;3745;56.964;24.128;2022-07-22T01:09:11;101483.03;;;20.43;100.00
7407;BME280;3745;56.964;24.128;2022-07-22T01:11:40;101491.53;;;20.48;100.00
7407;BME280;3745;56.964;24.128;2022-07-22T01:14:07;101482.94;;;20.50;100.00
7407;BME280;3745;56.964;24.128;2022-07-22T01:16:32;101486.34;;;20.51;100.00
7407;BME280;3745;56.964;24.128;2022-07-22T01:18:58;101483.00;;;20.46;100.00
7407;BME280;3745;56.964;24.128;2022-07-22T01:21:24;101421.91;;;20.07;100.00
7407;BME280;3745;56.964;24.128;2022-07-22T01:23:50;101491.69;;;20.39;100.00
7407;BME280;3745;56.964;24.128;2022-07-22T01:26:16;101488.22;;;20.40;100.00
7407;BME280;3745;56.964;24.128;2022-07-22T01:28:43;101397.44;;;19.83;100.00
7407;BME280;3745;56.964;24.128;2022-07-22T01:31:09;101481.41;;;20.39;100.00
7407;BME280;3745;56.964;24.128;2022-07-22T01:33:35;101456.03;;;20.16;100.00
7407;BME280;3745;56.964;24.128;2022-07-22T01:36:02;101488.38;;;20.31;100.00
7407;BME280;3745;56.964;24.128;2022-07-22T01:38:28;101484.19;;;20.27;100.00
7407;BME280;3745;56.964;24.128;2022-07-22T01:40:53;101484.94;;;20.32;100.00
7407;BME280;3745;56.964;24.128;2022-07-22T01:43:19;101483.28;;;20.28;100.00
7407;BME280;3745;56.964;24.128;2022-07-22T01:45:48;101478.25;;;20.19;100.00
7407;BME280;3745;56.964;24.128;2022-07-22T01:48:14;101468.28;;;19.97;100.00
7407;BME280;3745;56.964;24.128;2022-07-22T01:50:41;101459.81;;;19.92;100.00
7407;BME280;3745;56.964;24.128;2022-07-22T01:53:07;101441.13;;;19.81;100.00
7407;BME280;3745;56.964;24.128;2022-07-22T01:55:33;101482.63;;;20.12;100.00
7407;BME280;3745;56.964;24.128;2022-07-22T01:57:58;101481.88;;;20.07;100.00
7407;BME280;3745;56.964;24.128;2022-07-22T02:00:24;101484.38;;;20.10;100.00
7407;BME280;3745;56.964;24.128;2022-07-22T02:02:50;101424.16;;;19.71;100.00
7407;BME280;3745;56.964;24.128;2022-07-22T02:05:16;101491.28;;;20.08;100.00
7407;BME280;3745;56.964;24.128;2022-07-22T02:07:42;101490.44;;;20.08;100.00
7407;BME280;3745;56.964;24.128;2022-07-22T02:10:08;101493.81;;;20.10;100.00
7407;BME280;3745;56.964;24.128;2022-07-22T02:12:34;101469.97;;;20.01;100.00
7407;BME280;3745;56.964;24.128;2022-07-22T02:14:59;101468.28;;;19.97;100.00
7407;BME280;3745;56.964;24.128;2022-07-22T02:17:25;101417.31;;;19.70;100.00
7407;BME280;3745;56.964;24.128;2022-07-22T02:19:52;101489.47;;;20.15;100.00
7407;BME280;3745;56.964;24.128;2022-07-22T02:22:18;101487.00;;;20.09;100.00
7407;BME280;3745;56.964;24.128;2022-07-22T02:24:43;101500.72;;;20.08;100.00
7407;BME280;3745;56.964;24.128;2022-07-22T02:27:09;101412.31;;;19.61;100.00
7407;BME280;3745;56.964;24.128;2022-07-22T02:29:36;101496.56;;;19.99;100.00
7407;BME280;3745;56.964;24.128;2022-07-22T02:32:02;101463.41;;;19.79;100.00
7407;BME280;3745;56.964;24.128;2022-07-22T02:34:28;101478.66;;;19.91;100.00
7407;BME280;3745;56.964;24.128;2022-07-22T02:36:54;101457.44;;;19.79;100.00
7407;BME280;3745;56.964;24.128;2022-07-22T02:39:19;101498.09;;;20.09;100.00
7407;BME280;3745;56.964;24.128;2022-07-22T02:41:45;101492.13;;;20.09;100.00
7407;BME280;3745;56.964;24.128;2022-07-22T02:44:11;101496.44;;;20.07;100.00
7407;BME280;3745;56.964;24.128;2022-07-22T02:46:36;101500.72;;;20.08;100.00
7407;BME280;3745;56.964;24.128;2022-07-22T02:49:02;101454.91;;;19.77;100.00
7407;BME280;3745;56.964;24.128;2022-07-22T02:51:29;101505.00;;;20.09;100.00
7407;BME280;3745;56.964;24.128;2022-07-22T02:53:55;101344.50;;;19.12;100.00
7407;BME280;3745;56.964;24.128;2022-07-22T02:56:21;101493.94;;;20.00;100.00
7407;BME280;3745;56.964;24.128;2022-07-22T02:58:47;101421.69;;;19.65;100.00
7407;BME280;3745;56.964;24.128;2022-07-22T03:01:13;101492.97;;;20.09;100.00
7407;BME280;3745;56.964;24.128;2022-07-22T03:03:39;101368.09;;;19.41;100.00
7407;BME280;3745;56.964;24.128;2022-07-22T03:06:05;101484.44;;;20.07;100.00
7407;BME280;3745;56.964;24.128;2022-07-22T03:08:30;101356.28;;;19.25;100.00
7407;BME280;3745;56.964;24.128;2022-07-22T03:10:56;101296.78;;;18.95;100.00
7407;BME280;3745;56.964;24.128;2022-07-22T03:13:22;101488.63;;;20.13;100.00
7407;BME280;3745;56.964;24.128;2022-07-22T03:15:47;101505.63;;;20.23;100.00
7407;BME280;3745;56.964;24.128;2022-07-22T03:18:14;101507.34;;;20.24;100.00
7407;BME280;3745;56.964;24.128;2022-07-22T03:20:40;101485.09;;;20.20;100.00
7407;BME280;3745;56.964;24.128;2022-07-22T03:23:05;101450.25;;;20.00;100.00
7407;BME280;3745;56.964;24.128;2022-07-22T03:25:31;101495.28;;;20.27;100.00
7407;BME280;3745;56.964;24.128;2022-07-22T03:27:58;101506.31;;;20.34;100.00
7407;BME280;3745;56.964;24.128;2022-07-22T03:30:24;101506.22;;;20.40;100.00
7407;BME280;3745;56.964;24.128;2022-07-22T03:32:49;101507.09;;;20.42;100.00
7407;BME280;3745;56.964;24.128;2022-07-22T03:35:16;101467.94;;;20.22;100.00
7407;BME280;3745;56.964;24.128;2022-07-22T03:37:42;101289.69;;;19.16;100.00
7407;BME280;3745;56.964;24.128;2022-07-22T03:40:09;101498.28;;;20.55;100.00
7407;BME280;3745;56.964;24.128;2022-07-22T03:42:34;101498.22;;;20.58;100.00
7407;BME280;3745;56.964;24.128;2022-07-22T03:45:00;101448.94;;;20.32;100.00
7407;BME280;3745;56.964;24.128;2022-07-22T03:47:26;101455.66;;;20.42;100.00
7407;BME280;3745;56.964;24.128;2022-07-22T03:49:52;101502.44;;;20.64;100.00
7407;BME280;3745;56.964;24.128;2022-07-22T03:52:18;101421.75;;;20.16;100.00
7407;BME280;3745;56.964;24.128;2022-07-22T03:54:44;101459.78;;;20.49;100.00
7407;BME280;3745;56.964;24.128;2022-07-22T03:57:10;101471.56;;;20.64;100.00
7407;BME280;3745;56.964;24.128;2022-07-22T03:59:36;101431.56;;;20.46;100.00
7407;BME280;3745;56.964;24.128;2022-07-22T04:02:02;101455.28;;;20.63;100.00
7407;BME280;3745;56.964;24.128;2022-07-22T04:04:28;101494.13;;;20.95;100.00
7407;BME280;3745;56.964;24.128;2022-07-22T04:06:54;101490.75;;;20.92;100.00
7407;BME280;3745;56.964;24.128;2022-07-22T04:09:20;101446.53;;;20.73;100.00
7407;BME280;3745;56.964;24.128;2022-07-22T04:11:46;101477.00;;;20.94;100.00
7407;BME280;3745;56.964;24.128;2022-07-22T04:14:12;101508.44;;;21.13;100.00
7407;BME280;3745;56.964;24.128;2022-07-22T04:16:38;101479.31;;;21.08;100.00
7407;BME280;3745;56.964;24.128;2022-07-22T04:19:04;101491.00;;;21.26;100.00
7407;BME280;3745;56.964;24.128;2022-07-22T04:21:30;101486.63;;;21.31;100.00
7407;BME280;3745;56.964;24.128;2022-07-22T04:23:56;101491.56;;;21.41;100.00
7407;BME280;3745;56.964;24.128;2022-07-22T04:26:22;101477.91;;;21.38;100.00
7407;BME280;3745;56.964;24.128;2022-07-22T04:28:48;101483.75;;;21.44;100.00
7407;BME280;3745;56.964;24.128;2022-07-22T04:31:14;101444.50;;;21.35;100.00
7407;BME280;3745;56.964;24.128;2022-07-22T04:33:40;101483.28;;;21.69;100.00
7407;BME280;3745;56.964;24.128;2022-07-22T04:36:06;101482.28;;;21.74;100.00
7407;BME280;3745;56.964;24.128;2022-07-22T04:38:31;101478.75;;;21.78;100.00
7407;BME280;3745;56.964;24.128;2022-07-22T04:40:57;101476.94;;;21.83;100.00
7407;BME280;3745;56.964;24.128;2022-07-22T04:43:23;101482.00;;;21.89;100.00
7407;BME280;3745;56.964;24.128;2022-07-22T04:45:49;101364.66;;;21.35;100.00
7407;BME280;3745;56.964;24.128;2022-07-22T04:48:15;101415.50;;;21.65;100.00
7407;BME280;3745;56.964;24.128;2022-07-22T04:50:41;101416.22;;;21.70;100.00
7407;BME280;3745;56.964;24.128;2022-07-22T04:53:06;101411.38;;;21.56;100.00
7407;BME280;3745;56.964;24.128;2022-07-22T04:55:32;101475.00;;;21.94;100.00
7407;BME280;3745;56.964;24.128;2022-07-22T04:57:58;101474.13;;;21.94;100.00
7407;BME280;3745;56.964;24.128;2022-07-22T05:02:49;101467.81;;;22.08;100.00
7407;BME280;3745;56.964;24.128;2022-07-22T05:05:15;101469.25;;;22.19;100.00
7407;BME280;3745;56.964;24.128;2022-07-22T05:07:41;101435.97;;;22.09;100.00
7407;BME280;3745;56.964;24.128;2022-07-22T05:10:07;101463.56;;;22.40;100.00
7407;BME280;3745;56.964;24.128;2022-07-22T05:12:33;101470.38;;;22.44;100.00
7407;BME280;3745;56.964;24.128;2022-07-22T05:14:59;101298.56;;;21.34;100.00
7407;BME280;3745;56.964;24.128;2022-07-22T05:17:24;101466.22;;;22.38;100.00
7407;BME280;3745;56.964;24.128;2022-07-22T05:19:50;101278.69;;;21.39;100.00
7407;BME280;3745;56.964;24.128;2022-07-22T05:22:16;101461.28;;;22.63;100.00
7407;BME280;3745;56.964;24.128;2022-07-22T05:24:41;101461.06;;;22.72;100.00
7407;BME280;3745;56.964;24.128;2022-07-22T05:27:08;101405.69;;;22.51;100.00
7407;BME280;3745;56.964;24.128;2022-07-22T05:29:33;101453.38;;;23.01;100.00
7407;BME280;3745;56.964;24.128;2022-07-22T05:31:59;101456.78;;;23.03;100.00
7407;BME280;3745;56.964;24.128;2022-07-22T05:34:25;101454.66;;;23.17;100.00
7407;BME280;3745;56.964;24.128;2022-07-22T05:36:50;101456.19;;;23.25;100.00
7407;BME280;3745;56.964;24.128;2022-07-22T05:39:16;101421.94;;;23.16;100.00
7407;BME280;3745;56.964;24.128;2022-07-22T05:41:42;101413.97;;;23.26;100.00
7407;BME280;3745;56.964;24.128;2022-07-22T05:44:07;101424.78;;;23.40;100.00
7407;BME280;3745;56.964;24.128;2022-07-22T05:46:33;101417.63;;;23.48;100.00
7407;BME280;3745;56.964;24.128;2022-07-22T05:48:59;101385.19;;;23.38;100.00
7407;BME280;3745;56.964;24.128;2022-07-22T05:51:24;101417.34;;;23.57;100.00
7407;BME280;3745;56.964;24.128;2022-07-22T05:53:50;101435.78;;;23.74;100.00
7407;BME280;3745;56.964;24.128;2022-07-22T05:56:16;101429.28;;;23.61;100.00
7407;BME280;3745;56.964;24.128;2022-07-22T05:58:42;101451.09;;;23.80;100.00
7407;BME280;3745;56.964;24.128;2022-07-22T06:01:09;101411.19;;;23.61;100.00
7407;BME280;3745;56.964;24.128;2022-07-22T06:03:35;101412.44;;;23.75;100.00
7407;BME280;3745;56.964;24.128;2022-07-22T06:06:01;101441.47;;;24.13;100.00
7407;BME280;3745;56.964;24.128;2022-07-22T06:08:28;101428.31;;;24.19;100.00
7407;BME280;3745;56.964;24.128;2022-07-22T06:10:54;101292.78;;;23.46;100.00
7407;BME280;3745;56.964;24.128;2022-07-22T06:13:20;101313.47;;;23.72;100.00
7407;BME280;3745;56.964;24.128;2022-07-22T06:15:45;101428.66;;;24.35;100.00
7407;BME280;3745;56.964;24.128;2022-07-22T06:18:12;101406.66;;;24.21;100.00
7407;BME280;3745;56.964;24.128;2022-07-22T06:20:38;101433.84;;;24.35;100.00
7407;BME280;3745;56.964;24.128;2022-07-22T06:23:03;101424.34;;;24.35;100.00
7407;BME280;3745;56.964;24.128;2022-07-22T06:25:29;101427.72;;;24.62;100.00
7407;BME280;3745;56.964;24.128;2022-07-22T06:27:55;101352.84;;;24.33;100.00
7407;BME280;3745;56.964;24.128;2022-07-22T06:30:20;101372.09;;;24.49;100.00
7407;BME280;3745;56.964;24.128;2022-07-22T06:32:46;101428.59;;;24.87;100.00
7407;BME280;3745;56.964;24.128;2022-07-22T06:35:12;101421.38;;;24.95;100.00
7407;BME280;3745;56.964;24.128;2022-07-22T06:37:37;101396.31;;;24.71;100.00
7407;BME280;3745;56.964;24.128;2022-07-22T06:40:04;101442.94;;;24.71;100.00
7407;BME280;3745;56.964;24.128;2022-07-22T06:42:29;101378.19;;;24.48;100.00
7407;BME280;3745;56.964;24.128;2022-07-22T06:44:55;101439.06;;;25.07;100.00
7407;BME280;3745;56.964;24.128;2022-07-22T06:47:23;101439.31;;;25.24;100.00
7407;BME280;3745;56.964;24.128;2022-07-22T06:49:49;101435.38;;;25.38;100.00
7407;BME280;3745;56.964;24.128;2022-07-22T06:52:14;101412.81;;;25.40;100.00
7407;BME280;3745;56.964;24.128;2022-07-22T06:54:40;101378.47;;;25.34;100.00
7407;BME280;3745;56.964;24.128;2022-07-22T06:57:06;101416.31;;;25.62;100.00
7407;BME280;3745;56.964;24.128;2022-07-22T06:59:31;101374.88;;;25.15;100.00
7407;BME280;3745;56.964;24.128;2022-07-22T07:01:57;101375.41;;;25.23;100.00
7407;BME280;3745;56.964;24.128;2022-07-22T07:04:23;101410.66;;;25.51;100.00
7407;BME280;3745;56.964;24.128;2022-07-22T07:06:49;101358.53;;;25.35;100.00
7407;BME280;3745;56.964;24.128;2022-07-22T07:09:16;101325.53;;;25.18;100.00
7407;BME280;3745;56.964;24.128;2022-07-22T07:11:42;101313.44;;;25.17;100.00
7407;BME280;3745;56.964;24.128;2022-07-22T07:14:08;101443.25;;;26.01;100.00
7407;BME280;3745;56.964;24.128;2022-07-22T07:16:34;101440.00;;;26.18;100.00
7407;BME280;3745;56.964;24.128;2022-07-22T07:18:59;101372.09;;;25.65;100.00
7407;BME280;3745;56.964;24.128;2022-07-22T07:21:25;101370.88;;;25.52;100.00
7407;BME280;3745;56.964;24.128;2022-07-22T07:23:51;101427.81;;;25.98;100.00
7407;BME280;3745;56.964;24.128;2022-07-22T07:26:17;101322.72;;;25.45;100.00
7407;BME280;3745;56.964;24.128;2022-07-22T07:28:42;101346.75;;;25.71;100.00
7407;BME280;3745;56.964;24.128;2022-07-22T07:31:08;101407.69;;;26.25;100.00
7407;BME280;3745;56.964;24.128;2022-07-22T07:33:36;101260.50;;;25.45;100.00
7407;BME280;3745;56.964;24.128;2022-07-22T07:36:05;101374.34;;;26.36;100.00
7407;BME280;3745;56.964;24.128;2022-07-22T07:38:31;101434.63;;;26.83;100.00
7407;BME280;3745;56.964;24.128;2022-07-22T07:40:57;101429.97;;;26.91;100.00
7407;BME280;3745;56.964;24.128;2022-07-22T07:43:23;101433.06;;;26.79;100.00
7407;BME280;3745;56.964;24.128;2022-07-22T07:45:49;101424.81;;;26.89;100.00
7407;BME280;3745;56.964;24.128;2022-07-22T07:48:14;101429.19;;;27.08;100.00
7407;BME280;3745;56.964;24.128;2022-07-22T07:50:40;101429.88;;;27.11;100.00
7407;BME280;3745;56.964;24.128;2022-07-22T07:53:06;101283.03;;;26.26;100.00
7407;BME280;3745;56.964;24.128;2022-07-22T07:55:32;101356.69;;;26.83;100.00
7407;BME280;3745;56.964;24.128;2022-07-22T07:58:01;101428.75;;;27.35;100.00
7407;BME280;3745;56.964;24.128;2022-07-22T08:00:27;101366.38;;;26.98;100.00
7407;BME280;3745;56.964;24.128;2022-07-22T08:02:54;101430.41;;;27.57;100.00
7407;BME280;3745;56.964;24.128;2022-07-22T08:05:21;101322.41;;;27.12;100.00
7407;BME280;3745;56.964;24.128;2022-07-22T08:07:48;101378.13;;;27.44;100.00
7407;BME280;3745;56.964;24.128;2022-07-22T08:10:14;101424.09;;;27.79;100.00
7407;BME280;3745;56.964;24.128;2022-07-22T08:12:40;101333.63;;;27.31;100.00
7407;BME280;3745;56.964;24.128;2022-07-22T08:15:06;101340.50;;;27.32;100.00
7407;BME280;3745;56.964;24.128;2022-07-22T08:17:33;101407.81;;;27.76;100.00
7407;BME280;3745;56.964;24.128;2022-07-22T08:19:59;101432.63;;;27.83;100.00
7407;BME280;3745;56.964;24.128;2022-07-22T08:22:25;101434.41;;;27.64;100.00
7407;BME280;3745;56.964;24.128;2022-07-22T08:24:51;101427.06;;;27.72;100.00
7407;BME280;3745;56.964;24.128;2022-07-22T08:27:17;101363.28;;;27.46;100.00
7407;BME280;3745;56.964;24.128;2022-07-22T08:29:42;101326.44;;;27.36;100.00
7407;BME280;3745;56.964;24.128;2022-07-22T08:32:08;101332.34;;;27.59;100.00
7407;BME280;3745;56.964;24.128;2022-07-22T08:34:35;101427.47;;;28.34;100.00
7407;BME280;3745;56.964;24.128;2022-07-22T08:37:01;101363.28;;;27.99;100.00
7407;BME280;3745;56.964;24.128;2022-07-22T08:39:27;101429.91;;;28.55;100.00
7407;BME280;3745;56.964;24.128;2022-07-22T08:41:53;101362.53;;;28.14;100.00
7407;BME280;3745;56.964;24.128;2022-07-22T08:44:19;101356.22;;;28.01;100.00
7407;BME280;3745;56.964;24.128;2022-07-22T08:46:46;101401.75;;;28.28;100.00
7407;BME280;3745;56.964;24.128;2022-07-22T08:49:16;101371.41;;;28.10;100.00
7407;BME280;3745;56.964;24.128;2022-07-22T08:51:42;101376.00;;;28.22;100.00
7407;BME280;3745;56.964;24.128;2022-07-22T08:54:08;101435.50;;;28.47;100.00
7407;BME280;3745;56.964;24.128;2022-07-22T08:56:34;101403.34;;;28.14;100.00
7407;BME280;3745;56.964;24.128;2022-07-22T08:59:00;101430.63;;;28.24;100.00
7407;BME280;3745;56.964;24.128;2022-07-22T09:01:25;101448.47;;;28.31;100.00
7407;BME280;3745;56.964;24.128;2022-07-22T09:03:54;101403.50;;;28.28;100.00
7407;BME280;3745;56.964;24.128;2022-07-22T09:06:23;101439.28;;;28.41;100.00
7407;BME280;3745;56.964;24.128;2022-07-22T09:08:51;101452.59;;;28.52;100.00
7407;BME280;3745;56.964;24.128;2022-07-22T09:11:19;101398.38;;;28.26;100.00
7407;BME280;3745;56.964;24.128;2022-07-22T09:13:46;101417.97;;;28.50;100.00
7407;BME280;3745;56.964;24.128;2022-07-22T09:16:12;101450.75;;;28.72;100.00
7407;BME280;3745;56.964;24.128;2022-07-22T09:18:53;101447.50;;;28.84;100.00
7407;BME280;3745;56.964;24.128;2022-07-22T09:21:23;101453.19;;;29.08;100.00
7407;BME280;3745;56.964;24.128;2022-07-22T09:23:48;101445.31;;;29.09;100.00
7407;BME280;3745;56.964;24.128;2022-07-22T09:26:36;101451.75;;;29.02;100.00
7407;BME280;3745;56.964;24.128;2022-07-22T09:29:04;101359.28;;;28.43;100.00
7407;BME280;3745;56.964;24.128;2022-07-22T09:31:34;101445.69;;;29.01;100.00
7407;BME280;3745;56.964;24.128;2022-07-22T09:34:01;101437.47;;;29.09;100.00
7407;BME280;3745;56.964;24.128;2022-07-22T09:36:28;101396.78;;;28.74;100.00
7407;BME280;3745;56.964;24.128;2022-07-22T09:38:55;101461.38;;;29.17;100.00
7407;BME280;3745;56.964;24.128;2022-07-22T09:41:22;101372.09;;;28.81;100.00
7407;BME280;3745;56.964;24.128;2022-07-22T09:43:48;101454.00;;;29.56;100.00
7407;BME280;3745;56.964;24.128;2022-07-22T09:46:16;101348.47;;;29.15;100.00
7407;BME280;3745;56.964;24.128;2022-07-22T09:48:42;101445.75;;;29.80;100.00
7407;BME280;3745;56.964;24.128;2022-07-22T09:51:09;101315.84;;;29.08;100.00
7407;BME280;3745;56.964;24.128;2022-07-22T09:53:35;101348.47;;;29.15;100.00
7407;BME280;3745;56.964;24.128;2022-07-22T09:56:03;101448.63;;;29.91;100.00
7407;BME280;3745;56.964;24.128;2022-07-22T09:58:30;101352.84;;;28.99;100.00
7407;BME280;3745;56.964;24.128;2022-07-22T10:01:00;101417.00;;;29.34;100.00
7407;BME280;3745;56.964;24.128;2022-07-22T10:03:34;101246.41;;;28.27;100.00
7407;BME280;3745;56.964;24.128;2022-07-22T10:06:03;101333.16;;;28.78;100.00
7407;BME280;3745;56.964;24.128;2022-07-22T10:08:32;101454.09;;;29.71;100.00
7407;BME280;3745;56.964;24.128;2022-07-22T10:11:01;101374.56;;;29.15;100.00
7407;BME280;3745;56.964;24.128;2022-07-22T10:13:28;101396.22;;;29.33;100.00
7407;BME280;3745;56.964;24.128;2022-07-22T10:15:55;101385.41;;;29.23;100.00
7407;BME280;3745;56.964;24.128;2022-07-22T10:18:23;101422.78;;;29.71;100.00
7407;BME280;3745;56.964;24.128;2022-07-22T10:21:06;101384.72;;;29.67;100.00
7407;BME280;3745;56.964;24.128;2022-07-22T10:23:32;101356.34;;;29.76;100.00
7407;BME280;3745;56.964;24.128;2022-07-22T10:26:00;101408.97;;;30.14;100.00
7407;BME280;3745;56.964;24.128;2022-07-22T10:28:30;101447.66;;;30.37;100.00
7407;BME280;3745;56.964;24.128;2022-07-22T10:31:20;101439.47;;;29.84;100.00
7407;BME280;3745;56.964;24.128;2022-07-22T10:33:50;101335.63;;;29.28;100.00
7407;BME280;3745;56.964;24.128;2022-07-22T10:36:36;101353.94;;;29.57;100.00
7407;BME280;3745;56.964;24.128;2022-07-22T10:39:11;101355.31;;;29.79;100.00
7407;BME280;3745;56.964;24.128;2022-07-22T10:41:41;101337.81;;;29.81;100.00
7407;BME280;3745;56.964;24.128;2022-07-22T10:44:08;101352.16;;;30.03;100.00
7407;BME280;3745;56.964;24.128;2022-07-22T10:46:53;101430.72;;;30.44;100.00
7407;BME280;3745;56.964;24.128;2022-07-22T10:49:23;101426.81;;;30.51;100.00
7407;BME280;3745;56.964;24.128;2022-07-22T10:52:12;101303.28;;;29.76;100.00
7407;BME280;3745;56.964;24.128;2022-07-22T10:55:17;101430.53;;;30.61;100.00
7407;BME280;3745;56.964;24.128;2022-07-22T10:57:43;101429.06;;;30.57;100.00
7407;BME280;3745;56.964;24.128;2022-07-22T11:00:09;101280.06;;;29.87;100.00
7407;BME280;3745;56.964;24.128;2022-07-22T11:02:37;101333.97;;;30.16;100.00
7407;BME280;3745;56.964;24.128;2022-07-22T11:05:04;101374.72;;;30.62;100.00
7407;BME280;3745;56.964;24.128;2022-07-22T11:07:30;101412.09;;;31.07;100.00
7407;BME280;3745;56.964;24.128;2022-07-22T11:10:13;101358.47;;;30.72;100.00
7407;BME280;3745;56.964;24.128;2022-07-22T11:12:39;101384.06;;;31.09;100.00
7407;BME280;3745;56.964;24.128;2022-07-22T11:15:07;101418.59;;;31.14;100.00
7407;BME280;3745;56.964;24.128;2022-07-22T11:17:34;101274.06;;;30.27;100.00
7407;BME280;3745;56.964;24.128;2022-07-22T11:20:03;101343.75;;;30.56;100.00
7407;BME280;3745;56.964;24.128;2022-07-22T11:22:31;101297.78;;;30.10;100.00
7407;BME280;3745;56.964;24.128;2022-07-22T11:24:59;101402.63;;;30.90;100.00
7407;BME280;3745;56.964;24.128;2022-07-22T11:27:25;101401.63;;;30.79;100.00
7407;BME280;3745;56.964;24.128;2022-07-22T11:29:54;101395.16;;;30.42;100.00
7407;BME280;3745;56.964;24.128;2022-07-22T11:32:22;101300.28;;;29.68;100.00
7407;BME280;3745;56.964;24.128;2022-07-22T11:34:48;101396.13;;;30.25;100.00
7407;BME280;3745;56.964;24.128;2022-07-22T11:37:16;101328.53;;;29.91;100.00
7407;BME280;3745;56.964;24.128;2022-07-22T11:39:42;101324.63;;;29.84;100.00
7407;BME280;3745;56.964;24.128;2022-07-22T11:42:08;101348.75;;;29.87;100.00
7407;BME280;3745;56.964;24.128;2022-07-22T11:44:37;101380.44;;;30.25;100.00
7407;BME280;3745;56.964;24.128;2022-07-22T11:47:08;101253.38;;;29.52;100.00
7407;BME280;3745;56.964;24.128;2022-07-22T11:49:36;101374.69;;;30.34;100.00
7407;BME280;3745;56.964;24.128;2022-07-22T11:52:10;101250.91;;;29.79;100.00
7407;BME280;3745;56.964;24.128;2022-07-22T11:54:40;101384.81;;;30.69;100.00
7407;BME280;3745;56.964;24.128;2022-07-22T11:57:07;101290.88;;;30.09;100.00
7407;BME280;3745;56.964;24.128;2022-07-22T11:59:34;101312.16;;;30.31;100.00
7407;BME280;3745;56.964;24.128;2022-07-22T12:02:03;101382.38;;;30.80;100.00
7407;BME280;3745;56.964;24.128;2022-07-22T12:04:30;101245.66;;;30.08;100.00
7407;BME280;3745;56.964;24.128;2022-07-22T12:06:58;101362.00;;;30.71;100.00
7407;BME280;3745;56.964;24.128;2022-07-22T12:09:44;101287.53;;;29.93;100.00
7407;BME280;3745;56.964;24.128;2022-07-22T12:12:10;101250.78;;;29.66;100.00
7407;BME280;3745;56.964;24.128;2022-07-22T12:14:36;101316.63;;;30.15;100.00
7407;BME280;3745;56.964;24.128;2022-07-22T12:17:06;101377.72;;;30.56;100.00
7407;BME280;3745;56.964;24.128;2022-07-22T12:19:36;101382.03;;;30.57;100.00
7407;BME280;3745;56.964;24.128;2022-07-22T12:22:07;101266.69;;;29.91;100.00
7407;BME280;3745;56.964;24.128;2022-07-22T12:24:39;101246.91;;;29.87;100.00
7407;BME280;3745;56.964;24.128;2022-07-22T12:27:11;101233.25;;;29.98;100.00
7407;BME280;3745;56.964;24.128;2022-07-22T12:29:48;101378.28;;;30.76;100.00
7407;BME280;3745;56.964;24.128;2022-07-22T12:32:27;101269.97;;;30.09;100.00
7407;BME280;3745;56.964;24.128;2022-07-22T12:40:23;101256.19;;;30.07;100.00
7407;BME280;3745;56.964;24.128;2022-07-22T12:43:11;101309.41;;;30.48;100.00
7407;BME280;3745;56.964;24.128;2022-07-22T12:45:38;101264.97;;;30.20;100.00
7407;BME280;3745;56.964;24.128;2022-07-22T12:50:32;101370.81;;;30.70;100.00
7407;BME280;3745;56.964;24.128;2022-07-22T12:53:01;101345.63;;;30.54;100.00
7407;BME280;3745;56.964;24.128;2022-07-22T12:55:34;101304.38;;;30.45;100.00
7407;BME280;3745;56.964;24.128;2022-07-22T12:58:01;101253.56;;;30.07;100.00
7407;BME280;3745;56.964;24.128;2022-07-22T13:00:32;101286.75;;;30.33;100.00